createdAt,value
2019-05-23T00:02:10.261Z,2.27
2019-05-23T00:07:19.297Z,2.00
2019-05-23T00:12:28.454Z,1.92
2019-05-23T00:17:37.504Z,2.21
2019-05-23T00:22:46.750Z,2.71
2019-05-23T00:27:55.798Z,2.89
2019-05-23T00:33:04.977Z,2.82
2019-05-23T00:38:14.009Z,2.97
2019-05-23T00:43:23.153Z,3.13
2019-05-23T00:48:32.237Z,2.30
2019-05-23T00:53:41.399Z,2.85
2019-05-23T00:58:50.428Z,3.04
2019-05-23T01:03:59.576Z,1.73
2019-05-23T01:09:08.607Z,2.09
2019-05-23T01:14:16.245Z,2.33
2019-05-23T01:19:25.308Z,1.71
2019-05-23T01:24:34.497Z,2.54
2019-05-23T01:29:43.454Z,2.23
2019-05-23T01:34:52.770Z,2.49
2019-05-23T01:40:01.836Z,2.24
2019-05-23T01:45:10.987Z,2.22
2019-05-23T01:50:20.051Z,1.43
2019-05-23T01:55:29.191Z,1.80
2019-05-23T02:00:38.253Z,2.06
2019-05-23T02:05:47.357Z,1.58
2019-05-23T02:10:56.406Z,1.36
2019-05-23T02:16:05.581Z,1.50
2019-05-23T02:21:14.629Z,1.73
2019-05-23T02:26:23.929Z,1.91
2019-05-23T02:31:33.067Z,2.09
2019-05-23T02:36:42.404Z,1.74
2019-05-23T02:41:51.452Z,3.16
2019-05-23T02:47:00.594Z,2.75
2019-05-23T02:52:09.648Z,2.10
2019-05-23T02:57:18.848Z,2.41
2019-05-23T03:02:27.899Z,2.27
2019-05-23T03:07:36.991Z,2.31
2019-05-23T03:12:46.047Z,2.54
2019-05-23T03:17:55.171Z,2.34
2019-05-23T03:23:04.243Z,1.86
2019-05-23T03:28:13.419Z,2.28
2019-05-23T03:33:22.446Z,2.14
2019-05-23T03:38:31.568Z,2.06
2019-05-23T03:43:40.599Z,1.48
2019-05-23T03:48:49.744Z,2.15
2019-05-23T03:53:58.788Z,2.23
2019-05-23T03:59:07.904Z,2.55
2019-05-23T04:04:16.943Z,1.86
2019-05-23T04:09:26.075Z,2.25
2019-05-23T04:14:35.188Z,2.33
2019-05-23T04:19:44.600Z,2.23
2019-05-23T04:24:53.635Z,2.10
2019-05-23T04:30:02.811Z,2.00
2019-05-23T04:35:11.829Z,2.29
2019-05-23T04:40:20.970Z,2.31
2019-05-23T04:45:30.016Z,2.17
2019-05-23T04:50:39.137Z,2.10
2019-05-23T04:55:48.200Z,2.49
2019-05-23T05:00:57.376Z,2.23
2019-05-23T05:06:06.423Z,1.81
2019-05-23T05:11:15.646Z,2.13
2019-05-23T05:16:24.688Z,1.51
2019-05-23T05:21:33.843Z,1.59
2019-05-23T05:26:42.881Z,1.98
2019-05-23T05:31:52.002Z,2.27
2019-05-23T05:37:01.047Z,2.09
2019-05-23T05:42:10.262Z,1.89
2019-05-23T05:47:19.294Z,1.44
2019-05-23T05:52:28.408Z,1.41
2019-05-23T05:57:37.462Z,1.88
2019-05-23T06:03:02.921Z,1.44
2019-05-23T06:07:55.176Z,1.89
2019-05-23T06:13:04.355Z,1.98
2019-05-23T06:18:13.425Z,1.71
2019-05-23T06:23:22.590Z,1.71
2019-05-23T06:28:31.726Z,1.98
2019-05-23T06:33:40.823Z,1.71
2019-05-23T06:38:49.872Z,1.84
2019-05-23T06:43:59.016Z,1.71
2019-05-23T06:49:08.160Z,1.88
2019-05-23T06:54:17.326Z,1.79
2019-05-23T06:59:26.415Z,1.62
2019-05-23T07:04:35.545Z,1.59
2019-05-23T07:09:44.587Z,1.37
2019-05-23T07:14:53.764Z,1.80
2019-05-23T07:20:02.807Z,1.58
2019-05-23T07:25:12.564Z,1.64
2019-05-23T07:30:21.816Z,1.57
2019-05-23T07:35:31.042Z,1.38
2019-05-23T07:40:40.357Z,1.30
2019-05-23T07:45:49.485Z,1.74
2019-05-23T07:50:58.535Z,1.48
2019-05-23T07:56:07.625Z,1.59
2019-05-23T08:01:16.674Z,1.44
2019-05-23T08:06:25.788Z,1.85
2019-05-23T08:11:34.842Z,1.59
2019-05-23T08:16:43.986Z,1.93
2019-05-23T08:21:53.120Z,1.90
2019-05-23T08:27:02.270Z,1.70
2019-05-23T08:32:13.311Z,1.54
2019-05-23T08:37:12.548Z,1.40
2019-05-23T08:42:21.475Z,1.50
2019-05-23T08:47:30.608Z,2.01
2019-05-23T08:52:39.639Z,1.92
2019-05-23T08:57:48.841Z,1.47
2019-05-23T09:02:59.018Z,1.84
2019-05-23T09:08:06.762Z,1.86
2019-05-23T09:13:15.810Z,1.83
2019-05-23T09:18:25.002Z,1.44
2019-05-23T09:23:34.160Z,1.61
2019-05-23T09:28:43.308Z,1.41
2019-05-23T09:33:52.346Z,1.96
2019-05-23T09:39:01.448Z,1.40
2019-05-23T09:44:10.476Z,2.75
2019-05-23T09:49:19.593Z,1.53
2019-05-23T09:54:28.651Z,1.37
2019-05-23T09:59:37.786Z,1.36
2019-05-23T10:04:46.832Z,1.24
2019-05-23T10:09:56.005Z,1.12
2019-05-23T10:15:05.073Z,1.34
2019-05-23T10:20:14.449Z,1.48
2019-05-23T10:25:23.506Z,1.27
2019-05-23T10:30:32.627Z,1.82
2019-05-23T10:35:58.567Z,1.81
2019-05-23T10:40:50.363Z,1.66
2019-05-23T10:45:59.402Z,1.50
2019-05-23T10:51:08.569Z,1.41
2019-05-23T10:56:20.623Z,1.34
2019-05-23T11:01:26.500Z,1.56
2019-05-23T11:06:35.430Z,1.26
2019-05-23T11:11:44.578Z,1.56
2019-05-23T11:16:53.587Z,1.53
2019-05-23T11:22:02.792Z,1.39
2019-05-23T11:27:12.274Z,1.23
2019-05-23T11:32:21.423Z,1.43
2019-05-23T11:37:30.479Z,1.84
2019-05-23T11:42:39.685Z,1.54
2019-05-23T11:47:48.764Z,2.07
2019-05-23T11:52:57.873Z,2.10
2019-05-23T11:58:06.911Z,2.03
2019-05-23T12:03:16.092Z,1.91
2019-05-23T12:08:25.142Z,2.22
2019-05-23T12:13:34.339Z,2.34
2019-05-23T12:18:44.543Z,2.33
2019-05-23T12:23:43.656Z,2.64
2019-05-23T12:28:52.709Z,2.54
2019-05-23T12:34:01.912Z,2.81
2019-05-23T12:39:10.950Z,3.83
2019-05-23T12:44:20.124Z,3.24
2019-05-23T12:49:29.240Z,2.22
2019-05-23T12:54:38.482Z,2.08
2019-05-23T12:59:47.546Z,2.68
2019-05-23T13:04:56.655Z,2.72
2019-05-23T13:10:05.734Z,2.93
2019-05-23T13:15:13.784Z,2.64
2019-05-23T13:20:24.903Z,3.34
2019-05-23T13:25:26.557Z,3.50
2019-05-23T13:30:25.666Z,3.64
2019-05-23T13:35:34.780Z,2.58
2019-05-23T13:40:43.875Z,2.72
2019-05-23T13:45:53.000Z,2.71
2019-05-23T13:51:02.064Z,2.35
2019-05-23T13:56:11.249Z,2.47
2019-05-23T14:01:20.354Z,2.58
2019-05-23T14:06:29.463Z,2.60
2019-05-23T14:11:38.660Z,2.69
2019-05-23T14:16:47.783Z,3.17
2019-05-23T14:21:56.845Z,2.69
2019-05-23T14:27:05.972Z,2.39
2019-05-23T14:32:15.012Z,3.19
2019-05-23T14:37:24.112Z,2.93
2019-05-23T14:42:33.242Z,2.92
2019-05-23T14:47:42.448Z,2.98
2019-05-23T14:52:51.437Z,2.72
2019-05-23T14:58:00.755Z,3.14
2019-05-23T15:03:09.806Z,3.07
2019-05-23T15:08:19.144Z,3.46
2019-05-23T15:13:28.229Z,3.50
2019-05-23T15:18:37.366Z,3.62
2019-05-23T15:23:46.419Z,3.35
2019-05-23T15:28:55.604Z,2.87
2019-05-23T15:34:04.613Z,2.87
2019-05-23T15:39:13.746Z,3.03
2019-05-23T15:44:27.314Z,2.96
2019-05-23T15:49:31.766Z,2.91
2019-05-23T15:55:26.589Z,3.31
2019-05-23T16:00:15.546Z,2.55
2019-05-23T16:05:24.748Z,2.80
2019-05-23T16:10:33.847Z,2.62
2019-05-23T16:15:42.982Z,3.65
2019-05-23T16:20:52.044Z,2.64
2019-05-23T16:26:01.164Z,3.24
2019-05-23T16:31:10.251Z,2.59
2019-05-23T16:36:19.958Z,3.27
2019-05-23T16:41:29.053Z,2.27
2019-05-23T16:46:38.202Z,2.48
2019-05-23T16:51:47.271Z,2.70
2019-05-23T16:56:56.450Z,2.55
2019-05-23T17:02:06.713Z,2.45
2019-05-23T17:07:14.655Z,3.09
2019-05-23T17:12:23.686Z,3.11
2019-05-23T17:17:49.521Z,2.94
2019-05-23T17:22:41.494Z,2.88
2019-05-23T17:27:50.618Z,2.96
2019-05-23T17:32:59.688Z,3.13
2019-05-23T17:38:08.832Z,2.81
2019-05-23T17:43:17.865Z,2.51
2019-05-23T17:48:27.177Z,2.91
2019-05-23T17:53:36.405Z,2.86
2019-05-23T17:58:45.562Z,2.28
2019-05-23T18:03:54.646Z,2.76
2019-05-23T18:09:03.782Z,3.17
2019-05-23T18:14:12.933Z,3.09
2019-05-23T18:19:22.659Z,3.67
2019-05-23T18:24:31.738Z,3.51
2019-05-23T18:29:51.651Z,2.68
2019-05-23T18:34:50.674Z,3.00
2019-05-23T18:39:59.869Z,2.85
2019-05-23T18:45:08.923Z,2.97
2019-05-23T18:50:18.242Z,2.75
2019-05-23T18:55:27.294Z,2.94
2019-05-23T19:00:36.436Z,3.23
2019-05-23T19:05:45.467Z,2.91
2019-05-23T19:10:54.716Z,2.54
2019-05-23T19:16:03.868Z,2.92
2019-05-23T19:21:15.676Z,3.29
2019-05-23T19:26:14.794Z,2.53
2019-05-23T19:31:23.779Z,3.19
2019-05-23T19:36:32.816Z,3.36
2019-05-23T19:41:41.953Z,3.26
2019-05-23T19:46:51.176Z,3.36
2019-05-23T19:52:00.382Z,3.35
2019-05-23T19:57:09.426Z,4.03
2019-05-23T20:02:18.582Z,4.42
2019-05-23T20:07:27.630Z,3.61
2019-05-23T20:12:36.738Z,3.86
2019-05-23T20:17:45.882Z,3.82
2019-05-23T20:22:55.057Z,3.64
2019-05-23T20:28:04.171Z,3.24
2019-05-23T20:33:13.290Z,4.35
2019-05-23T20:38:22.322Z,4.02
2019-05-23T20:43:31.455Z,4.07
2019-05-23T20:48:40.490Z,3.40
2019-05-23T20:53:49.695Z,3.06
2019-05-23T20:58:58.824Z,3.91
2019-05-23T21:04:08.281Z,3.38
2019-05-23T21:09:17.357Z,3.85
2019-05-23T21:14:26.497Z,3.53
2019-05-23T21:19:35.542Z,3.90
2019-05-23T21:24:44.680Z,3.79
2019-05-23T21:29:53.710Z,3.84
2019-05-23T21:35:02.811Z,3.85
2019-05-23T21:40:11.856Z,3.96
2019-05-23T21:45:20.955Z,3.61
2019-05-23T21:50:29.979Z,4.02
2019-05-23T21:55:39.149Z,3.85
2019-05-23T22:00:48.191Z,3.61
2019-05-23T22:05:57.449Z,3.74
2019-05-23T22:11:06.494Z,4.28
2019-05-23T22:16:15.620Z,4.22
2019-05-23T22:21:24.886Z,4.20
2019-05-23T22:26:34.104Z,4.52
2019-05-23T22:31:43.242Z,4.35
2019-05-23T22:36:52.364Z,4.17
2019-05-23T22:42:01.418Z,3.27
2019-05-23T22:47:10.504Z,3.67
2019-05-23T22:52:19.545Z,3.86
2019-05-23T22:57:28.672Z,4.14
2019-05-23T23:02:37.831Z,3.37
2019-05-23T23:07:47.099Z,3.98
2019-05-23T23:12:56.145Z,3.59
2019-05-23T23:18:05.274Z,4.07
2019-05-23T23:23:14.331Z,3.62
2019-05-23T23:28:24.073Z,4.15
2019-05-23T23:33:33.112Z,3.68
2019-05-23T23:38:42.418Z,3.32
2019-05-23T23:43:59.254Z,3.81
2019-05-23T23:49:00.122Z,4.03
2019-05-23T23:54:09.367Z,3.99
2019-05-23T23:59:18.643Z,4.10
